Time;durP1;ratioP1;P1;durP2;ratioP2;P2;SDS_P1;SDS_P2;PMS_P1;PMS_P2;Temp;Humidity;BMP_temperature;BMP_pressure;BME280_temperature;BME280_humidity;BME280_pressure;Samples;Min_cycle;Max_cycle;Signal;HPM_P1;HPM_P2
2021/07/15 00:01:06;;;;;;;;;11.75;11.75;;;;;19.40;64.97;101609.66;4936161;28;45427;-75
2021/07/15 00:03:31;;;;;;;;;12.75;11.00;;;;;19.43;65.10;101613.94;4923021;28;45314;-76
2021/07/15 00:05:58;;;;;;;;;9.75;8.25;;;;;19.38;65.46;101613.34;4943614;28;45922;-76
2021/07/15 00:08:26;;;;;;;;;12.00;10.25;;;;;19.37;65.29;101608.94;4943362;28;45223;-76
2021/07/15 00:10:54;;;;;;;;;7.25;7.25;;;;;19.38;64.96;101608.00;4923487;28;45333;-75
2021/07/15 00:13:20;;;;;;;;;10.00;7.75;;;;;19.33;65.36;101602.94;4941407;28;45510;-76
2021/07/15 00:15:50;;;;;;;;;8.00;8.00;;;;;19.32;65.50;101602.09;4921197;28;45431;-76
2021/07/15 00:18:20;;;;;;;;;12.50;11.00;;;;;19.32;65.54;101596.75;4943527;28;45659;-75
2021/07/15 00:20:47;;;;;;;;;8.50;8.50;;;;;19.30;65.48;101598.66;4936306;28;45387;-75
2021/07/15 00:23:13;;;;;;;;;12.50;9.50;;;;;19.30;65.15;101603.13;4922747;28;46249;-74
2021/07/15 00:25:40;;;;;;;;;7.75;7.75;;;;;19.26;65.51;101602.41;4925255;28;45410;-74
2021/07/15 00:28:05;;;;;;;;;13.00;11.50;;;;;19.25;65.90;101605.16;4909996;28;45293;-74
2021/07/15 00:30:31;;;;;;;;;10.25;10.00;;;;;19.25;65.92;101597.19;4923381;28;45482;-74
2021/07/15 00:32:56;;;;;;;;;11.00;6.75;;;;;19.23;65.87;101610.59;4923735;28;46119;-74
2021/07/15 00:35:21;;;;;;;;;9.25;9.25;;;;;19.21;65.72;101617.81;4923850;28;46409;-74
2021/07/15 00:37:47;;;;;;;;;9.50;9.50;;;;;19.17;65.78;101616.22;4923714;28;45343;-74
2021/07/15 00:40:14;;;;;;;;;12.25;8.50;;;;;19.16;66.07;101619.84;4911118;28;45414;-74
2021/07/15 00:42:40;;;;;;;;;11.75;11.00;;;;;19.16;65.78;101617.19;4935563;28;45374;-74
2021/07/15 00:45:08;;;;;;;;;14.00;11.25;;;;;19.12;66.13;101617.34;4929362;28;45597;-77
2021/07/15 00:47:34;;;;;;;;;10.75;10.75;;;;;19.10;66.56;101631.69;4941578;28;45548;-74
2021/07/15 00:50:00;;;;;;;;;10.25;9.75;;;;;19.09;66.24;101630.84;4938083;28;45669;-76
2021/07/15 00:52:25;;;;;;;;;14.00;12.50;;;;;19.08;66.48;101621.13;4931609;28;45450;-76
2021/07/15 00:54:51;;;;;;;;;9.75;9.50;;;;;19.08;66.32;101622.94;4942564;28;45255;-76
2021/07/15 00:57:17;;;;;;;;;12.00;12.00;;;;;19.06;66.46;101627.50;4930039;28;45324;-75
2021/07/15 00:59:42;;;;;;;;;12.75;12.50;;;;;19.05;66.53;101615.97;4922550;28;45339;-76
2021/07/15 01:02:08;;;;;;;;;16.00;11.75;;;;;19.06;66.36;101624.81;4956629;28;45503;-75
2021/07/15 01:04:33;;;;;;;;;12.50;11.50;;;;;19.03;66.24;101628.53;4926590;28;46528;-75
2021/07/15 01:06:59;;;;;;;;;10.00;9.00;;;;;19.01;66.75;101615.25;4923301;28;45350;-75
2021/07/15 01:09:25;;;;;;;;;13.75;13.00;;;;;19.04;66.81;101624.06;4919864;28;45408;-75
2021/07/15 01:12:24;;;;;;;;;10.75;10.00;;;;;19.06;66.80;101628.31;4921746;28;45445;-75
2021/07/15 01:15:07;;;;;;;;;11.00;10.00;;;;;19.06;66.92;101628.31;4922523;28;46406;-75
2021/07/15 01:17:45;;;;;;;;;10.75;10.75;;;;;19.07;66.78;101626.53;4928151;28;45384;-75
2021/07/15 01:20:31;;;;;;;;;16.25;11.50;;;;;19.05;66.85;101631.97;4922937;28;45393;-74
2021/07/15 01:23:31;;;;;;;;;13.50;11.50;;;;;19.04;66.91;101640.03;4913944;28;45307;-74
2021/07/15 01:26:21;;;;;;;;;13.50;11.00;;;;;19.02;66.96;101634.78;4944596;28;47147;-73
2021/07/15 01:29:18;;;;;;;;;16.75;12.50;;;;;19.02;66.91;101629.44;4934802;28;45354;-73
2021/07/15 01:31:46;;;;;;;;;18.25;15.00;;;;;18.97;66.83;101629.72;4937183;28;45283;-73
2021/07/15 01:34:14;;;;;;;;;23.75;20.50;;;;;18.95;67.17;101631.59;4922138;28;45359;-73
2021/07/15 01:36:45;;;;;;;;;24.50;21.75;;;;;18.95;67.00;101642.25;4937788;28;47649;-73
2021/07/15 01:39:13;;;;;;;;;23.25;19.00;;;;;18.94;66.84;101637.03;4922999;28;45183;-73
2021/07/15 01:41:46;;;;;;;;;23.50;23.00;;;;;18.93;67.24;101643.28;4928538;28;45465;-73
2021/07/15 01:44:18;;;;;;;;;26.50;22.50;;;;;18.91;67.29;101619.41;4921348;28;45657;-73
2021/07/15 01:46:44;;;;;;;;;18.75;17.25;;;;;18.91;67.47;101630.06;4911930;28;46449;-73
2021/07/15 01:49:10;;;;;;;;;21.75;19.50;;;;;18.87;67.72;101625.81;4935298;28;45409;-73
2021/07/15 01:51:36;;;;;;;;;22.25;19.75;;;;;18.88;67.39;101627.56;4940957;28;45382;-73
2021/07/15 01:54:03;;;;;;;;;19.50;17.00;;;;;18.86;67.55;101632.97;4939178;28;45304;-74
2021/07/15 01:56:30;;;;;;;;;22.00;20.00;;;;;18.84;67.73;101629.50;4917481;28;45369;-73
2021/07/15 01:58:57;;;;;;;;;22.00;20.75;;;;;18.81;67.72;101632.34;4915355;28;45394;-73
2021/07/15 02:01:23;;;;;;;;;18.75;16.25;;;;;18.77;67.75;101629.00;4924340;28;45400;-73
2021/07/15 02:03:51;;;;;;;;;18.25;15.50;;;;;18.78;68.21;101629.84;4922651;28;45349;-73
2021/07/15 02:06:18;;;;;;;;;17.25;15.25;;;;;18.75;67.89;101619.34;4922466;28;46462;-77
2021/07/15 02:08:46;;;;;;;;;15.50;14.00;;;;;18.73;67.73;101622.13;4918332;28;45724;-73
2021/07/15 02:11:13;;;;;;;;;14.25;13.00;;;;;18.70;67.89;101627.59;4922561;28;45450;-74
2021/07/15 02:13:40;;;;;;;;;16.00;14.25;;;;;18.67;68.37;101625.09;4921887;28;45427;-75
2021/07/15 02:16:07;;;;;;;;;15.00;13.25;;;;;18.65;68.00;101622.53;4922039;28;45543;-75
2021/07/15 02:18:34;;;;;;;;;20.00;14.50;;;;;18.65;68.21;101633.16;4922435;28;45176;-75
2021/07/15 02:21:01;;;;;;;;;14.50;11.50;;;;;18.67;68.10;101627.75;4918750;28;45429;-75
2021/07/15 02:23:28;;;;;;;;;12.50;12.50;;;;;18.65;68.06;101625.19;4941661;28;45319;-75
2021/07/15 02:25:56;;;;;;;;;16.75;14.00;;;;;18.61;68.45;101615.66;4940313;28;47140;-75
2021/07/15 02:28:24;;;;;;;;;12.75;12.00;;;;;18.62;68.47;101620.00;4939410;28;45806;-75
2021/07/15 02:30:54;;;;;;;;;13.75;11.75;;;;;18.62;68.63;101624.50;4911285;28;45236;-75
2021/07/15 02:33:24;;;;;;;;;13.00;12.25;;;;;18.61;68.58;101626.31;4915972;28;47404;-74
2021/07/15 02:35:54;;;;;;;;;14.00;14.00;;;;;18.58;68.46;101618.47;4924649;28;45275;-75
2021/07/15 02:38:22;;;;;;;;;16.50;12.25;;;;;18.51;68.23;101606.44;4922423;28;45462;-75
2021/07/15 02:40:49;;;;;;;;;13.25;11.75;;;;;18.49;68.52;101614.50;4922270;28;45334;-74
2021/07/15 02:43:14;;;;;;;;;14.50;12.00;;;;;18.43;68.82;101615.69;4921859;28;45227;-74
2021/07/15 02:45:40;;;;;;;;;12.50;12.50;;;;;18.42;69.04;101605.97;4911044;28;48281;-74
2021/07/15 02:48:05;;;;;;;;;13.75;11.25;;;;;18.43;69.21;101606.81;4920083;28;45520;-74
2021/07/15 02:50:31;;;;;;;;;16.75;13.00;;;;;18.42;69.17;101599.81;4924332;28;45323;-74
2021/07/15 02:52:57;;;;;;;;;13.50;12.75;;;;;18.42;69.04;101605.97;4920343;28;46168;-74
2021/07/15 02:55:24;;;;;;;;;14.50;14.50;;;;;18.40;69.04;101607.84;4921936;28;46432;-74
2021/07/15 02:58:02;;;;;;;;;13.25;13.00;;;;;18.43;69.28;101615.69;4922159;28;45495;-74
2021/07/15 03:00:35;;;;;;;;;19.50;18.00;;;;;18.42;69.64;101608.63;4935872;28;45511;-76
2021/07/15 03:03:48;;;;;;;;;14.75;12.50;;;;;18.41;69.14;101600.72;4926824;28;45417;-76
2021/07/15 03:06:22;;;;;;;;;13.25;12.25;;;;;18.37;69.36;101601.84;4940083;28;46313;-75
2021/07/15 03:08:58;;;;;;;;;19.25;15.75;;;;;18.38;69.79;101603.53;4954345;28;45275;-75
2021/07/15 03:11:31;;;;;;;;;15.25;13.00;;;;;18.39;69.61;101610.59;4939979;28;45364;-75
2021/07/15 03:13:59;;;;;;;;;15.00;11.75;;;;;18.40;69.44;101605.19;4913020;28;45501;-75
2021/07/15 03:16:25;;;;;;;;;14.50;13.25;;;;;18.40;69.60;101593.69;4921376;28;46243;-75
2021/07/15 03:18:53;;;;;;;;;19.00;13.25;;;;;18.42;69.67;101599.81;4921771;28;45715;-75
2021/07/15 03:21:21;;;;;;;;;14.00;12.50;;;;;18.41;69.34;101606.91;4913836;28;45442;-75
2021/07/15 03:23:47;;;;;;;;;11.75;11.75;;;;;18.44;69.63;101609.44;4917432;28;45414;-75
2021/07/15 03:26:15;;;;;;;;;13.75;13.00;;;;;18.43;69.80;101609.50;4937105;28;47298;-75
2021/07/15 03:28:43;;;;;;;;;13.00;11.25;;;;;18.43;69.82;101610.34;4925473;28;45321;-75
2021/07/15 03:31:10;;;;;;;;;13.25;13.25;;;;;18.47;69.69;101613.69;4921117;28;45283;-75
2021/07/15 03:33:38;;;;;;;;;14.50;14.50;;;;;18.48;69.47;101614.56;4910788;28;45252;-75
2021/07/15 03:36:08;;;;;;;;;13.50;12.50;;;;;18.48;69.32;101617.22;4924557;28;46305;-76
2021/07/15 03:38:37;;;;;;;;;16.50;14.50;;;;;18.49;69.48;101618.97;4924704;28;45535;-75
2021/07/15 03:41:04;;;;;;;;;13.75;13.00;;;;;18.50;69.55;101618.88;4924896;28;45544;-76
2021/07/15 03:43:30;;;;;;;;;15.25;10.50;;;;;18.52;70.07;101613.47;4918769;28;45508;-74
2021/07/15 03:45:56;;;;;;;;;14.50;12.25;;;;;18.53;69.35;101623.16;4924400;28;45539;-74
2021/07/15 03:48:27;;;;;;;;;13.25;11.50;;;;;18.51;69.32;101619.75;4941327;28;45487;-75
2021/07/15 03:50:58;;;;;;;;;15.50;14.25;;;;;18.52;69.72;101624.97;4931102;28;45266;-74
2021/07/15 03:53:24;;;;;;;;;14.75;12.25;;;;;18.53;69.52;101623.16;4919276;28;45208;-74
2021/07/15 03:55:51;;;;;;;;;17.50;15.00;;;;;18.55;69.51;101619.50;4924618;28;46526;-74
2021/07/15 03:58:17;;;;;;;;;13.75;12.75;;;;;18.55;69.68;101614.16;4924174;28;45639;-74
2021/07/15 04:00:45;;;;;;;;;16.25;15.25;;;;;18.57;69.35;101615.91;4921847;28;45436;-74
2021/07/15 04:03:17;;;;;;;;;14.50;13.00;;;;;18.61;69.61;101618.31;4934407;28;45274;-74
2021/07/15 04:05:44;;;;;;;;;17.00;12.75;;;;;18.59;69.25;101614.00;4943490;28;46314;-74
2021/07/15 04:08:10;;;;;;;;;13.25;11.25;;;;;18.55;69.48;101624.81;4943704;28;45694;-73
2021/07/15 04:10:39;;;;;;;;;15.00;15.00;;;;;18.53;69.35;101623.16;4916239;28;45256;-73
2021/07/15 04:13:05;;;;;;;;;13.00;11.75;;;;;18.53;69.70;101615.19;4924425;28;45483;-73
2021/07/15 04:15:56;;;;;;;;;15.25;13.00;;;;;18.53;69.59;101612.53;4940001;28;45499;-73
2021/07/15 04:18:27;;;;;;;;;16.50;15.00;;;;;18.56;69.82;101612.38;4943458;28;45239;-73
2021/07/15 04:20:54;;;;;;;;;21.00;15.00;;;;;18.56;69.67;101609.72;4927338;28;45411;-74
2021/07/15 04:23:22;;;;;;;;;16.75;14.50;;;;;18.58;69.79;101621.13;4919941;28;45347;-74
2021/07/15 04:25:50;;;;;;;;;14.00;13.00;;;;;18.60;69.33;101624.56;4924158;28;46365;-73
2021/07/15 04:28:16;;;;;;;;;15.50;15.25;;;;;18.60;70.04;101619.25;4924148;28;45916;-73
2021/07/15 04:30:49;;;;;;;;;16.50;12.00;;;;;18.63;69.47;101634.19;4921059;28;45295;-73
2021/07/15 04:33:14;;;;;;;;;14.00;14.00;;;;;18.64;69.42;101634.09;4929780;28;47274;-72
2021/07/15 04:35:40;;;;;;;;;13.75;13.75;;;;;18.65;69.57;101629.66;4921042;28;46457;-72
2021/07/15 04:38:07;;;;;;;;;13.00;12.00;;;;;18.69;69.58;101633.03;4922493;28;45468;-74
2021/07/15 04:40:33;;;;;;;;;13.50;12.75;;;;;18.67;69.18;101633.06;4921944;28;45367;-74
2021/07/15 04:43:07;;;;;;;;;14.50;14.50;;;;;18.66;69.45;101632.25;4922647;28;45403;-73
2021/07/15 04:45:36;;;;;;;;;15.25;14.25;;;;;18.67;69.49;101636.59;4920491;28;47202;-73
2021/07/15 04:48:02;;;;;;;;;15.00;15.00;;;;;18.70;69.44;101632.06;4933738;28;45317;-74
2021/07/15 04:50:30;;;;;;;;;15.50;14.75;;;;;18.71;68.99;101647.09;4904613;28;46675;-74
2021/07/15 04:53:07;;;;;;;;;18.25;14.50;;;;;18.71;68.96;101636.44;4904093;28;46172;-72
2021/07/15 04:55:34;;;;;;;;;15.00;13.25;;;;;18.71;69.13;101632.00;4923338;28;45415;-72
2021/07/15 04:58:03;;;;;;;;;16.25;12.75;;;;;18.73;68.88;101637.22;4923688;28;45298;-72
2021/07/15 05:00:29;;;;;;;;;14.50;14.00;;;;;18.74;68.85;101637.13;4917398;28;45324;-72
2021/07/15 05:03:12;;;;;;;;;13.00;11.00;;;;;18.75;69.26;101640.66;4917492;28;45511;-72
2021/07/15 05:05:38;;;;;;;;;13.50;11.50;;;;;18.74;68.71;101638.97;4917851;28;47284;-72
2021/07/15 05:08:03;;;;;;;;;10.75;10.50;;;;;18.74;69.01;101625.66;4937517;28;45311;-72
2021/07/15 05:10:29;;;;;;;;;19.25;12.25;;;;;18.74;68.95;101639.78;4921003;28;45255;-72
2021/07/15 05:12:54;;;;;;;;;12.25;12.25;;;;;18.74;69.13;101637.13;4938237;28;46985;-73
2021/07/15 05:15:19;;;;;;;;;14.25;13.25;;;;;18.75;68.77;101633.53;4918415;28;47958;-73
2021/07/15 05:17:45;;;;;;;;;16.25;12.75;;;;;18.77;68.97;101628.13;4922345;28;45804;-73
2021/07/15 05:20:11;;;;;;;;;20.25;15.75;;;;;18.77;68.74;101629.00;4914649;28;45613;-73
2021/07/15 05:22:37;;;;;;;;;13.00;13.00;;;;;18.76;68.54;101618.44;4916401;28;46222;-73
2021/07/15 05:25:05;;;;;;;;;15.25;12.00;;;;;18.80;68.90;101627.97;4921777;28;47332;-73
2021/07/15 05:27:32;;;;;;;;;15.50;11.25;;;;;18.81;68.99;101635.03;4916141;28;46075;-73
2021/07/15 05:29:57;;;;;;;;;12.25;12.25;;;;;18.84;68.74;101637.50;4920433;28;45501;-73
2021/07/15 05:32:22;;;;;;;;;13.75;10.00;;;;;18.86;68.89;101632.97;4920054;28;46150;-73
2021/07/15 05:34:48;;;;;;;;;13.50;12.50;;;;;18.89;68.35;101634.59;4919289;28;46933;-73
2021/07/15 05:37:14;;;;;;;;;12.50;11.75;;;;;18.91;68.25;101639.84;4930840;28;45549;-73
2021/07/15 05:39:43;;;;;;;;;12.00;12.00;;;;;18.89;68.02;101637.25;4913648;28;45308;-73
2021/07/15 05:42:09;;;;;;;;;10.25;9.75;;;;;18.87;67.79;101639.13;4921478;28;45465;-73
2021/07/15 05:44:34;;;;;;;;;11.75;10.75;;;;;18.87;67.41;101645.31;4921215;28;46306;-72
2021/07/15 05:47:00;;;;;;;;;11.75;9.25;;;;;18.88;67.24;101641.75;4933438;28;45277;-72
2021/07/15 05:49:25;;;;;;;;;11.00;11.00;;;;;18.89;67.16;101639.91;4921487;28;45310;-72
2021/07/15 05:51:50;;;;;;;;;13.50;10.75;;;;;18.95;67.40;101636.06;4914515;28;45373;-72
2021/07/15 05:54:16;;;;;;;;;11.75;11.50;;;;;18.97;67.27;101637.69;4923795;28;46293;-72
2021/07/15 05:56:42;;;;;;;;;8.00;8.00;;;;;18.99;67.04;101642.94;4921490;28;46230;-72
2021/07/15 05:59:07;;;;;;;;;10.00;8.75;;;;;19.02;66.55;101653.44;4915461;28;45461;-72
2021/07/15 06:01:33;;;;;;;;;12.25;11.25;;;;;19.03;66.74;101644.50;4927323;28;45460;-72
2021/07/15 06:03:58;;;;;;;;;12.75;11.50;;;;;19.08;67.43;101658.44;4916078;28;46459;-72
2021/07/15 06:06:23;;;;;;;;;13.00;12.00;;;;;19.11;66.74;101658.25;4917374;28;45404;-72
2021/07/15 06:08:48;;;;;;;;;10.00;9.00;;;;;19.14;66.79;101656.38;4926953;28;45580;-73
2021/07/15 06:11:14;;;;;;;;;10.25;9.25;;;;;19.12;66.81;101643.13;4922577;28;45460;-74
2021/07/15 06:13:39;;;;;;;;;12.00;12.00;;;;;19.18;66.71;101645.50;4921557;28;45356;-73
2021/07/15 06:16:05;;;;;;;;;11.50;11.50;;;;;19.19;66.74;101654.34;4925044;28;45275;-73
2021/07/15 06:18:30;;;;;;;;;10.00;10.00;;;;;19.21;66.97;101661.28;4913005;28;45153;-73
2021/07/15 06:20:56;;;;;;;;;10.50;10.50;;;;;19.25;66.60;101659.34;4916594;28;45500;-72
2021/07/15 06:23:21;;;;;;;;;11.00;9.50;;;;;19.28;67.04;101651.19;4920790;28;45357;-73
2021/07/15 06:25:46;;;;;;;;;12.25;11.75;;;;;19.31;66.07;101660.81;4910977;28;45630;-73
2021/07/15 06:28:12;;;;;;;;;10.75;10.25;;;;;19.31;65.95;101658.97;4913879;28;45484;-72
2021/07/15 06:30:37;;;;;;;;;14.25;11.25;;;;;19.34;66.58;101660.63;4915104;28;45901;-72
2021/07/15 06:33:03;;;;;;;;;12.25;10.25;;;;;19.37;65.93;101663.13;4922152;28;45327;-72
2021/07/15 06:35:28;;;;;;;;;9.50;9.50;;;;;19.38;66.19;101664.84;4922245;28;45303;-72
2021/07/15 06:37:54;;;;;;;;;8.50;8.00;;;;;19.40;66.20;101668.28;4923009;28;45245;-72
2021/07/15 06:40:21;;;;;;;;;10.50;9.00;;;;;19.42;65.89;101665.53;4913461;28;45928;-72
2021/07/15 06:42:47;;;;;;;;;12.00;11.25;;;;;19.42;65.66;101665.53;4921978;28;45301;-72
2021/07/15 06:45:13;;;;;;;;;13.25;12.50;;;;;19.40;66.20;101670.09;4920360;28;45303;-72
2021/07/15 06:47:38;;;;;;;;;10.75;10.75;;;;;19.42;66.02;101668.19;4922194;28;45251;-73
2021/07/15 06:50:06;;;;;;;;;13.25;11.25;;;;;19.43;65.88;101677.91;4914810;28;45440;-72
2021/07/15 06:52:31;;;;;;;;;16.50;13.00;;;;;19.44;65.77;101679.63;4921622;28;47361;-72
2021/07/15 06:55:00;;;;;;;;;12.00;11.50;;;;;19.44;66.10;101680.50;4921499;28;45355;-72
2021/07/15 06:57:26;;;;;;;;;12.25;11.25;;;;;19.47;66.28;101681.25;4925559;28;45340;-72
2021/07/15 06:59:51;;;;;;;;;12.50;11.25;;;;;19.49;66.32;101676.69;4911941;28;45413;-72
2021/07/15 07:02:16;;;;;;;;;13.25;13.25;;;;;19.52;66.37;101666.72;4924079;28;45271;-72
2021/07/15 07:04:42;;;;;;;;;12.00;11.00;;;;;19.60;66.54;101665.44;4925299;28;45292;-72
2021/07/15 07:07:07;;;;;;;;;11.50;11.50;;;;;19.66;66.37;101665.94;4925577;28;45342;-72
2021/07/15 07:09:32;;;;;;;;;12.50;11.75;;;;;19.69;66.16;101672.91;4925003;28;45456;-72
2021/07/15 07:11:58;;;;;;;;;10.25;9.75;;;;;19.76;66.17;101674.28;4912116;28;45393;-72
2021/07/15 07:14:23;;;;;;;;;12.25;10.25;;;;;19.81;65.83;101675.81;4916079;28;45230;-72
2021/07/15 07:16:48;;;;;;;;;12.50;11.50;;;;;19.84;65.90;101670.31;4941188;28;45203;-72
2021/07/15 07:19:14;;;;;;;;;9.75;9.00;;;;;19.90;66.23;101672.63;4943204;28;47105;-73
2021/07/15 07:21:39;;;;;;;;;12.75;10.50;;;;;19.92;65.48;101678.72;4944320;28;45481;-73
2021/07/15 07:24:04;;;;;;;;;12.50;12.00;;;;;19.93;65.68;101672.44;4914371;28;45440;-72
2021/07/15 07:26:30;;;;;;;;;13.25;10.75;;;;;19.97;65.70;101670.47;4924655;28;45193;-72
2021/07/15 07:28:55;;;;;;;;;14.25;12.00;;;;;20.00;65.72;101675.63;4924097;28;45188;-72
2021/07/15 07:31:21;;;;;;;;;13.50;13.00;;;;;20.04;65.71;101673.63;4910687;28;46158;-72
2021/07/15 07:33:46;;;;;;;;;11.75;11.75;;;;;20.08;65.44;101669.81;4917290;28;45235;-74
2021/07/15 07:36:12;;;;;;;;;12.00;12.00;;;;;20.11;65.43;101665.19;4924973;28;45645;-73
2021/07/15 07:38:37;;;;;;;;;15.00;15.00;;;;;20.12;65.35;101671.41;4942068;28;45285;-73
2021/07/15 07:41:03;;;;;;;;;12.50;11.75;;;;;20.12;65.74;101666.91;4919997;28;46445;-74
2021/07/15 07:43:28;;;;;;;;;14.75;13.25;;;;;20.15;65.15;101662.34;4920053;28;45306;-74
2021/07/15 07:45:54;;;;;;;;;11.75;10.50;;;;;20.14;65.05;101664.16;4919714;28;45395;-74
2021/07/15 07:48:21;;;;;;;;;11.25;11.25;;;;;20.19;65.12;101671.88;4920026;28;45506;-73
2021/07/15 07:50:46;;;;;;;;;11.50;10.75;;;;;20.25;64.86;101674.19;4918859;28;45577;-73
2021/07/15 07:53:12;;;;;;;;;12.50;12.25;;;;;20.28;64.45;101668.66;4924194;28;45345;-73
2021/07/15 07:55:39;;;;;;;;;11.50;11.25;;;;;20.30;65.17;101677.44;4920887;28;45507;-73
2021/07/15 07:58:04;;;;;;;;;12.50;11.50;;;;;20.32;64.51;101670.19;4924152;28;47166;-73
2021/07/15 08:00:30;;;;;;;;;11.00;10.25;;;;;20.36;64.71;101670.88;4917584;28;46444;-73
2021/07/15 08:02:55;;;;;;;;;15.25;11.25;;;;;20.43;64.41;101676.69;4913661;28;45183;-73
2021/07/15 08:05:24;;;;;;;;;12.50;12.50;;;;;20.46;64.12;101665.84;4923078;28;45281;-73
2021/07/15 08:07:50;;;;;;;;;11.50;9.25;;;;;20.51;64.55;101657.56;4936828;28;46178;-73
2021/07/15 08:10:17;;;;;;;;;9.75;9.25;;;;;20.56;64.63;101656.31;4923261;28;45464;-73
2021/07/15 08:12:43;;;;;;;;;9.75;7.00;;;;;20.63;64.69;101671.97;4924129;28;45283;-73
2021/07/15 08:15:10;;;;;;;;;11.00;9.25;;;;;20.64;63.77;101663.84;4930898;28;45363;-73
2021/07/15 08:17:36;;;;;;;;;15.00;11.50;;;;;20.69;63.73;101672.44;4914753;28;45577;-73
2021/07/15 08:20:04;;;;;;;;;10.75;10.75;;;;;20.71;63.50;101671.50;4918577;28;46660;-73
2021/07/15 08:22:29;;;;;;;;;11.50;11.00;;;;;20.74;63.42;101657.97;4921307;28;45505;-73
2021/07/15 08:24:54;;;;;;;;;9.00;9.00;;;;;20.78;63.80;101668.34;4931661;28;45294;-73
2021/07/15 08:27:20;;;;;;;;;12.25;10.50;;;;;20.82;63.61;101663.66;4936831;28;45556;-72
2021/07/15 08:29:45;;;;;;;;;13.00;9.25;;;;;20.87;63.57;101682.94;4938432;28;45295;-73
2021/07/15 08:32:10;;;;;;;;;9.75;9.75;;;;;20.89;63.47;101666.84;4914086;28;45263;-73
2021/07/15 08:34:36;;;;;;;;;10.75;9.00;;;;;20.90;63.22;101657.84;4939819;28;45259;-73
2021/07/15 08:37:02;;;;;;;;;14.50;12.75;;;;;20.92;63.39;101664.81;4942086;28;46942;-73
2021/07/15 08:39:28;;;;;;;;;10.25;10.25;;;;;20.94;63.59;101661.19;4918099;28;45602;-73
2021/07/15 08:41:55;;;;;;;;;9.25;9.00;;;;;20.96;62.65;101656.59;4927063;28;45406;-73
2021/07/15 08:44:22;;;;;;;;;11.00;11.00;;;;;20.96;62.66;101656.59;4923815;28;45469;-73
2021/07/15 08:46:49;;;;;;;;;12.75;9.00;;;;;20.95;62.94;101650.41;4923640;28;45596;-73
2021/07/15 08:49:19;;;;;;;;;9.75;9.50;;;;;20.96;62.19;101668.16;4918436;28;46197;-72
2021/07/15 08:51:47;;;;;;;;;13.75;10.50;;;;;20.97;62.56;101652.97;4924480;28;45304;-72
2021/07/15 08:54:15;;;;;;;;;10.25;10.25;;;;;20.98;62.76;101652.03;4913779;28;45328;-72
2021/07/15 08:56:44;;;;;;;;;11.75;9.75;;;;;21.00;62.92;101652.78;4914985;28;45449;-72
2021/07/15 08:59:15;;;;;;;;;11.25;9.00;;;;;21.04;62.67;101648.16;4928617;28;46078;-72
2021/07/15 09:01:45;;;;;;;;;10.50;10.50;;;;;21.09;62.06;101651.34;4910749;28;45260;-72
2021/07/15 09:04:12;;;;;;;;;13.25;11.75;;;;;21.16;62.70;101647.38;4920914;28;45380;-72
2021/07/15 09:06:40;;;;;;;;;11.75;9.00;;;;;21.24;61.61;101654.88;4916260;28;45558;-72
2021/07/15 09:09:06;;;;;;;;;10.75;10.00;;;;;21.29;62.09;101649.22;4927510;28;45682;-72
2021/07/15 09:11:31;;;;;;;;;11.00;10.00;;;;;21.36;62.13;101664.78;4912989;28;45916;-72
2021/07/15 09:13:57;;;;;;;;;11.50;11.00;;;;;21.43;60.91;101656.38;4904249;28;45414;-72
2021/07/15 09:16:22;;;;;;;;;9.50;9.50;;;;;21.51;61.02;101670.06;4915633;28;45169;-72
2021/07/15 09:18:56;;;;;;;;;9.25;9.25;;;;;21.56;60.28;101664.44;4928764;28;46071;-73
2021/07/15 09:21:27;;;;;;;;;12.00;10.00;;;;;21.64;59.56;101661.25;4921920;28;45278;-72
2021/07/15 09:23:53;;;;;;;;;8.00;8.00;;;;;21.69;58.43;101651.09;4921846;28;45288;-73
2021/07/15 09:26:18;;;;;;;;;10.25;9.75;;;;;21.76;58.95;101649.75;4919829;28;45922;-72
2021/07/15 09:28:44;;;;;;;;;10.75;8.75;;;;;21.83;58.81;101654.69;4923564;28;48259;-73
2021/07/15 09:31:16;;;;;;;;;9.25;9.25;;;;;21.88;57.78;101664.16;4913260;28;45414;-73
2021/07/15 09:33:42;;;;;;;;;11.25;9.75;;;;;21.92;58.32;101654.09;4927472;28;45438;-72
2021/07/15 09:36:14;;;;;;;;;13.25;10.00;;;;;21.98;57.90;101650.13;4918060;28;47049;-72
2021/07/15 09:38:40;;;;;;;;;10.75;9.25;;;;;22.06;58.28;101650.50;4913644;28;45304;-73
2021/07/15 09:41:06;;;;;;;;;8.75;8.75;;;;;22.11;58.18;101658.22;4922372;28;45364;-72
2021/07/15 09:43:34;;;;;;;;;9.00;9.00;;;;;22.15;57.43;101668.59;4923152;28;45486;-72
2021/07/15 09:46:14;;;;;;;;;8.75;7.50;;;;;22.22;57.83;101666.38;4917973;28;45458;-73
2021/07/15 09:48:41;;;;;;;;;11.75;9.75;;;;;22.27;57.45;101671.41;4919656;28;47481;-73
2021/07/15 09:51:09;;;;;;;;;10.00;9.25;;;;;22.34;56.36;101671.84;4913452;28;45460;-73
2021/07/15 09:53:36;;;;;;;;;10.50;9.00;;;;;22.34;57.12;101670.03;4923823;28;45541;-73
2021/07/15 09:56:01;;;;;;;;;10.75;9.25;;;;;22.35;57.21;101674.41;4922041;28;45519;-73
2021/07/15 09:58:37;;;;;;;;;7.25;6.25;;;;;22.37;57.50;101663.63;4910552;28;45354;-73
2021/07/15 10:01:13;;;;;;;;;10.00;8.25;;;;;22.44;57.35;101677.44;4911410;28;45447;-73
2021/07/15 10:03:43;;;;;;;;;9.50;7.75;;;;;22.51;55.85;101670.69;4907103;28;46446;-73
2021/07/15 10:06:10;;;;;;;;;8.25;8.00;;;;;22.56;56.07;101678.38;4926007;28;45267;-73
2021/07/15 10:08:39;;;;;;;;;9.75;8.25;;;;;22.58;55.76;101671.97;4932330;28;45656;-73
2021/07/15 10:11:13;;;;;;;;;8.75;8.75;;;;;22.63;55.94;101677.00;4920246;28;45502;-73
2021/07/15 10:13:39;;;;;;;;;12.75;11.50;;;;;22.66;55.81;101675.94;4909005;28;45474;-73
2021/07/15 10:16:07;;;;;;;;;9.50;7.75;;;;;22.68;56.56;101663.28;4907489;28;46166;-73
2021/07/15 10:18:38;;;;;;;;;11.00;11.00;;;;;22.69;55.62;101668.53;4933663;28;45457;-73
2021/07/15 10:21:05;;;;;;;;;9.00;9.00;;;;;22.70;55.63;101675.63;4920158;28;45514;-73
2021/07/15 10:23:45;;;;;;;;;9.75;8.25;;;;;22.69;55.71;101671.22;4920478;28;45315;-73
2021/07/15 10:26:12;;;;;;;;;7.50;7.25;;;;;22.72;55.40;101674.69;4913811;28;45466;-73
2021/07/15 10:28:42;;;;;;;;;12.75;11.75;;;;;22.73;55.06;101671.88;4917921;28;45456;-73
2021/07/15 10:31:08;;;;;;;;;10.00;8.50;;;;;22.77;56.12;101672.50;4910505;28;45656;-73
2021/07/15 10:33:35;;;;;;;;;12.00;10.50;;;;;22.78;55.77;101675.09;4906744;28;46363;-73
2021/07/15 10:36:04;;;;;;;;;9.75;9.00;;;;;22.80;55.63;101672.28;4921310;28;45547;-73
2021/07/15 10:38:34;;;;;;;;;12.50;11.00;;;;;22.83;55.50;101677.44;4928912;28;45371;-73
2021/07/15 10:41:01;;;;;;;;;16.25;11.50;;;;;22.84;55.88;101687.19;4909707;28;45409;-73
2021/07/15 10:43:26;;;;;;;;;8.00;8.00;;;;;22.87;55.80;101686.09;4922320;28;45290;-73
2021/07/15 10:45:53;;;;;;;;;9.00;9.00;;;;;22.90;55.81;101689.44;4905884;28;45204;-73
2021/07/15 10:48:19;;;;;;;;;9.50;9.50;;;;;22.90;55.93;101684.09;4914799;28;46146;-73
2021/07/15 10:50:44;;;;;;;;;8.75;7.00;;;;;22.90;54.87;101681.41;4912667;28;45223;-73
2021/07/15 10:53:13;;;;;;;;;9.75;9.00;;;;;22.90;54.72;101681.41;4919783;28;45402;-73
2021/07/15 10:55:39;;;;;;;;;9.50;9.50;;;;;22.94;55.11;101673.97;4919916;28;45994;-73
2021/07/15 10:58:04;;;;;;;;;9.75;9.75;;;;;22.98;55.64;101683.53;4917241;28;45603;-73
2021/07/15 11:00:30;;;;;;;;;7.00;6.00;;;;;23.02;55.15;101682.34;4920517;28;45420;-73
2021/07/15 11:03:20;;;;;;;;;8.00;8.00;;;;;23.03;54.30;101680.53;4916181;28;45463;-73
2021/07/15 11:05:46;;;;;;;;;8.25;7.75;;;;;23.02;54.06;101679.66;4915483;28;47142;-73
2021/07/15 11:08:12;;;;;;;;;9.75;9.75;;;;;23.05;54.46;101686.63;4921154;28;47078;-73
2021/07/15 11:10:38;;;;;;;;;9.00;8.00;;;;;23.08;54.71;101681.06;4920292;28;45393;-73
2021/07/15 11:13:05;;;;;;;;;9.50;9.00;;;;;23.15;55.08;101674.28;4922036;28;45304;-73
2021/07/15 11:15:45;;;;;;;;;10.75;8.00;;;;;23.20;54.73;101678.44;4919837;28;47001;-73